sensor_id;sensor_type;location;lat;lon;timestamp;pressure;altitude;pressure_sealevel;temperature;humidity
27840;BME280;15207;42.182;24.308;2023-02-28T00:00:19;99704.00;;;9.09;87.44
27840;BME280;15207;42.182;24.308;2023-02-28T00:02:45;99722.25;;;9.03;87.44
27840;BME280;15207;42.182;24.308;2023-02-28T00:05:12;99710.53;;;9.05;87.59
27840;BME280;15207;42.182;24.308;2023-02-28T00:07:38;99708.91;;;9.03;87.71
27840;BME280;15207;42.182;24.308;2023-02-28T00:10:09;99720.25;;;9.06;87.46
27840;BME280;15207;42.182;24.308;2023-02-28T00:12:36;99716.78;;;9.19;87.21
27840;BME280;15207;42.182;24.308;2023-02-28T00:15:05;99712.91;;;9.23;86.65
27840;BME280;15207;42.182;24.308;2023-02-28T00:17:31;99715.47;;;9.24;86.41
27840;BME280;15207;42.182;24.308;2023-02-28T00:19:57;99716.38;;;9.38;86.27
27840;BME280;15207;42.182;24.308;2023-02-28T00:22:27;99714.06;;;9.46;85.72
27840;BME280;15207;42.182;24.308;2023-02-28T00:24:53;99719.59;;;9.43;85.65
27840;BME280;15207;42.182;24.308;2023-02-28T00:27:18;99725.78;;;9.44;85.55
27840;BME280;15207;42.182;24.308;2023-02-28T00:29:46;99726.03;;;9.53;84.79
27840;BME280;15207;42.182;24.308;2023-02-28T00:32:12;99731.56;;;9.50;85.05
27840;BME280;15207;42.182;24.308;2023-02-28T00:34:38;99725.03;;;9.42;85.25
27840;BME280;15207;42.182;24.308;2023-02-28T00:37:08;99717.97;;;9.41;85.14
27840;BME280;15207;42.182;24.308;2023-02-28T00:39:36;99716.91;;;9.30;85.19
27840;BME280;15207;42.182;24.308;2023-02-28T00:42:02;99720.53;;;9.29;85.01
27840;BME280;15207;42.182;24.308;2023-02-28T00:44:29;99727.91;;;9.38;85.29
27840;BME280;15207;42.182;24.308;2023-02-28T00:46:55;99731.78;;;9.34;86.47
27840;BME280;15207;42.182;24.308;2023-02-28T00:49:21;99734.19;;;9.24;86.30
27840;BME280;15207;42.182;24.308;2023-02-28T00:51:47;99732.13;;;9.15;86.73
27840;BME280;15207;42.182;24.308;2023-02-28T00:54:13;99733.59;;;9.06;86.47
27840;BME280;15207;42.182;24.308;2023-02-28T00:56:39;99722.34;;;8.73;83.56
27840;BME280;15207;42.182;24.308;2023-02-28T00:59:04;99728.59;;;8.30;86.07
27840;BME280;15207;42.182;24.308;2023-02-28T01:01:30;99723.06;;;8.33;86.36
27840;BME280;15207;42.182;24.308;2023-02-28T01:03:55;99718.19;;;8.26;86.83
27840;BME280;15207;42.182;24.308;2023-02-28T01:06:21;99718.19;;;8.26;87.42
27840;BME280;15207;42.182;24.308;2023-02-28T01:08:47;99730.13;;;8.20;88.06
27840;BME280;15207;42.182;24.308;2023-02-28T01:11:15;99734.78;;;8.31;88.37
27840;BME280;15207;42.182;24.308;2023-02-28T01:13:41;99720.69;;;8.29;87.35
27840;BME280;15207;42.182;24.308;2023-02-28T01:16:07;99711.63;;;8.17;87.23
27840;BME280;15207;42.182;24.308;2023-02-28T01:18:32;99700.22;;;8.00;87.72
27840;BME280;15207;42.182;24.308;2023-02-28T01:20:58;99696.88;;;7.97;88.31
27840;BME280;15207;42.182;24.308;2023-02-28T01:23:28;99707.31;;;7.85;89.31
27840;BME280;15207;42.182;24.308;2023-02-28T01:25:53;99711.63;;;7.88;89.88
27840;BME280;15207;42.182;24.308;2023-02-28T01:28:19;99705.53;;;8.00;91.02
27840;BME280;15207;42.182;24.308;2023-02-28T01:30:49;99706.84;;;8.07;91.80
27840;BME280;15207;42.182;24.308;2023-02-28T01:33:15;99716.31;;;8.13;91.72
27840;BME280;15207;42.182;24.308;2023-02-28T01:35:41;99720.50;;;8.03;90.09
27840;BME280;15207;42.182;24.308;2023-02-28T01:38:07;99724.69;;;8.07;89.52
27840;BME280;15207;42.182;24.308;2023-02-28T01:40:32;99729.06;;;8.08;89.05
27840;BME280;15207;42.182;24.308;2023-02-28T01:42:58;99732.22;;;8.00;89.49
27840;BME280;15207;42.182;24.308;2023-02-28T01:45:31;99727.94;;;7.98;89.71
27840;BME280;15207;42.182;24.308;2023-02-28T01:48:07;99733.72;;;7.90;89.87
27840;BME280;15207;42.182;24.308;2023-02-28T01:50:39;99726.56;;;7.90;89.93
27840;BME280;15207;42.182;24.308;2023-02-28T01:53:09;99724.69;;;7.92;89.96
27840;BME280;15207;42.182;24.308;2023-02-28T01:55:36;99725.25;;;7.83;90.06
27840;BME280;15207;42.182;24.308;2023-02-28T01:58:04;99728.28;;;7.77;89.94
27840;BME280;15207;42.182;24.308;2023-02-28T02:00:31;99730.19;;;7.89;90.28
27840;BME280;15207;42.182;24.308;2023-02-28T02:03:04;99737.56;;;8.00;90.48
27840;BME280;15207;42.182;24.308;2023-02-28T02:05:31;99732.69;;;8.07;90.56
27840;BME280;15207;42.182;24.308;2023-02-28T02:08:02;99744.13;;;8.09;90.05
27840;BME280;15207;42.182;24.308;2023-02-28T02:10:50;99740.47;;;7.96;90.79
27840;BME280;15207;42.182;24.308;2023-02-28T02:13:44;99744.69;;;8.14;90.38
27840;BME280;15207;42.182;24.308;2023-02-28T02:16:34;99744.41;;;8.04;90.38
27840;BME280;15207;42.182;24.308;2023-02-28T02:27:25;99758.13;;;7.98;91.89
27840;BME280;15207;42.182;24.308;2023-02-28T02:30:29;99777.38;;;8.03;92.32
27840;BME280;15207;42.182;24.308;2023-02-28T02:43:45;99761.09;;;8.08;90.30
27840;BME280;15207;42.182;24.308;2023-02-28T02:46:19;99763.38;;;8.14;91.02
27840;BME280;15207;42.182;24.308;2023-02-28T02:48:46;99768.91;;;8.11;91.01
27840;BME280;15207;42.182;24.308;2023-02-28T02:51:18;99772.59;;;8.23;90.14
27840;BME280;15207;42.182;24.308;2023-02-28T02:53:55;99785.09;;;8.23;90.54
27840;BME280;15207;42.182;24.308;2023-02-28T02:56:25;99787.88;;;8.21;91.94
27840;BME280;15207;42.182;24.308;2023-02-28T02:58:53;99795.22;;;8.32;92.71
27840;BME280;15207;42.182;24.308;2023-02-28T03:01:23;99800.81;;;8.27;90.95
27840;BME280;15207;42.182;24.308;2023-02-28T03:04:30;99796.34;;;8.13;91.46
27840;BME280;15207;42.182;24.308;2023-02-28T03:06:48;99800.72;;;8.14;92.67
27840;BME280;15207;42.182;24.308;2023-02-28T03:09:14;99814.72;;;8.18;93.45
27840;BME280;15207;42.182;24.308;2023-02-28T03:11:40;99819.69;;;8.10;93.86
27840;BME280;15207;42.182;24.308;2023-02-28T03:22:21;99826.28;;;8.47;93.41
27840;BME280;15207;42.182;24.308;2023-02-28T03:25:17;99830.69;;;8.49;93.40
27840;BME280;15207;42.182;24.308;2023-02-28T03:30:50;99838.53;;;8.66;92.57
27840;BME280;15207;42.182;24.308;2023-02-28T03:36:09;99841.09;;;8.68;92.29
27840;BME280;15207;42.182;24.308;2023-02-28T03:38:45;99833.47;;;8.76;91.80
27840;BME280;15207;42.182;24.308;2023-02-28T03:41:15;99843.19;;;8.77;91.48
27840;BME280;15207;42.182;24.308;2023-02-28T03:43:48;99851.59;;;8.71;91.69
27840;BME280;15207;42.182;24.308;2023-02-28T03:46:17;99854.50;;;8.37;92.43
27840;BME280;15207;42.182;24.308;2023-02-28T03:49:01;99861.03;;;8.17;94.55
27840;BME280;15207;42.182;24.308;2023-02-28T03:51:29;99864.38;;;8.20;95.35
27840;BME280;15207;42.182;24.308;2023-02-28T03:54:04;99871.28;;;8.39;94.56
27840;BME280;15207;42.182;24.308;2023-02-28T03:56:34;99881.69;;;8.44;94.47
27840;BME280;15207;42.182;24.308;2023-02-28T03:59:24;99880.56;;;8.63;93.54
27840;BME280;15207;42.182;24.308;2023-02-28T04:01:51;99883.34;;;8.61;93.19
27840;BME280;15207;42.182;24.308;2023-02-28T04:04:17;99878.84;;;8.62;93.14
27840;BME280;15207;42.182;24.308;2023-02-28T04:06:44;99886.31;;;8.71;93.00
27840;BME280;15207;42.182;24.308;2023-02-28T04:09:12;99890.31;;;8.64;93.04
27840;BME280;15207;42.182;24.308;2023-02-28T04:11:44;99893.28;;;8.73;93.32
27840;BME280;15207;42.182;24.308;2023-02-28T04:14:11;99892.88;;;8.80;92.70
27840;BME280;15207;42.182;24.308;2023-02-28T04:16:41;99894.88;;;8.91;91.98
27840;BME280;15207;42.182;24.308;2023-02-28T04:19:06;99897.75;;;8.88;92.00
27840;BME280;15207;42.182;24.308;2023-02-28T04:21:35;99900.41;;;8.88;92.39
27840;BME280;15207;42.182;24.308;2023-02-28T04:24:01;99901.53;;;8.98;92.91
27840;BME280;15207;42.182;24.308;2023-02-28T04:26:34;99902.81;;;9.07;93.10
27840;BME280;15207;42.182;24.308;2023-02-28T04:29:02;99902.31;;;9.00;93.24
27840;BME280;15207;42.182;24.308;2023-02-28T04:31:27;99904.22;;;8.83;94.51
27840;BME280;15207;42.182;24.308;2023-02-28T04:33:53;99894.97;;;8.75;95.31
27840;BME280;15207;42.182;24.308;2023-02-28T04:36:19;99900.22;;;8.76;96.02
27840;BME280;15207;42.182;24.308;2023-02-28T04:38:46;99901.09;;;8.77;97.21
27840;BME280;15207;42.182;24.308;2023-02-28T04:41:15;99905.97;;;8.84;97.56
27840;BME280;15207;42.182;24.308;2023-02-28T04:43:40;99902.91;;;8.76;98.74
27840;BME280;15207;42.182;24.308;2023-02-28T04:46:07;99905.00;;;8.71;100.00
27840;BME280;15207;42.182;24.308;2023-02-28T04:48:35;99915.78;;;8.69;100.00
27840;BME280;15207;42.182;24.308;2023-02-28T04:51:07;99911.28;;;8.55;100.00
27840;BME280;15207;42.182;24.308;2023-02-28T04:53:34;99911.78;;;8.62;100.00
27840;BME280;15207;42.182;24.308;2023-02-28T04:56:00;99912.13;;;8.56;100.00
27840;BME280;15207;42.182;24.308;2023-02-28T04:58:26;99911.06;;;8.44;100.00
27840;BME280;15207;42.182;24.308;2023-02-28T05:00:52;99919.91;;;8.44;100.00
27840;BME280;15207;42.182;24.308;2023-02-28T05:03:19;99916.16;;;8.32;100.00
27840;BME280;15207;42.182;24.308;2023-02-28T05:05:46;99920.81;;;8.29;100.00
27840;BME280;15207;42.182;24.308;2023-02-28T05:08:12;99928.75;;;8.30;100.00
27840;BME280;15207;42.182;24.308;2023-02-28T05:10:37;99924.38;;;8.29;100.00
27840;BME280;15207;42.182;24.308;2023-02-28T05:13:03;99924.94;;;8.34;100.00
27840;BME280;15207;42.182;24.308;2023-02-28T05:15:28;99935.75;;;8.47;100.00
27840;BME280;15207;42.182;24.308;2023-02-28T05:17:54;99926.94;;;8.45;100.00
27840;BME280;15207;42.182;24.308;2023-02-28T05:20:19;99936.59;;;8.48;100.00
27840;BME280;15207;42.182;24.308;2023-02-28T05:22:46;99947.44;;;8.61;100.00
27840;BME280;15207;42.182;24.308;2023-02-28T05:25:18;99949.41;;;8.57;100.00
27840;BME280;15207;42.182;24.308;2023-02-28T05:27:44;99957.84;;;8.66;100.00
27840;BME280;15207;42.182;24.308;2023-02-28T05:30:10;99954.53;;;8.77;100.00
27840;BME280;15207;42.182;24.308;2023-02-28T05:32:38;99958.22;;;8.59;100.00
27840;BME280;15207;42.182;24.308;2023-02-28T05:35:04;99958.66;;;8.52;100.00
27840;BME280;15207;42.182;24.308;2023-02-28T05:37:30;99966.75;;;8.50;100.00
27840;BME280;15207;42.182;24.308;2023-02-28T05:39:55;99964.50;;;8.58;100.00
27840;BME280;15207;42.182;24.308;2023-02-28T05:42:21;99973.19;;;8.62;100.00
27840;BME280;15207;42.182;24.308;2023-02-28T05:44:47;99966.31;;;8.58;100.00
27840;BME280;15207;42.182;24.308;2023-02-28T05:47:13;99977.09;;;8.40;100.00
27840;BME280;15207;42.182;24.308;2023-02-28T05:49:41;99989.09;;;8.33;100.00
27840;BME280;15207;42.182;24.308;2023-02-28T05:52:07;99991.41;;;8.39;100.00
27840;BME280;15207;42.182;24.308;2023-02-28T05:54:33;99998.66;;;8.37;100.00
27840;BME280;15207;42.182;24.308;2023-02-28T05:56:58;99997.97;;;8.33;100.00
27840;BME280;15207;42.182;24.308;2023-02-28T05:59:24;100005.56;;;8.25;100.00
27840;BME280;15207;42.182;24.308;2023-02-28T06:01:49;100001.75;;;8.29;100.00
27840;BME280;15207;42.182;24.308;2023-02-28T06:04:17;100006.22;;;8.29;100.00
27840;BME280;15207;42.182;24.308;2023-02-28T06:06:48;100005.28;;;8.30;100.00
27840;BME280;15207;42.182;24.308;2023-02-28T06:09:15;100003.66;;;8.27;100.00
27840;BME280;15207;42.182;24.308;2023-02-28T06:11:41;100009.41;;;8.36;100.00
27840;BME280;15207;42.182;24.308;2023-02-28T06:14:07;100007.63;;;8.51;100.00
27840;BME280;15207;42.182;24.308;2023-02-28T06:16:38;100011.34;;;8.48;100.00
27840;BME280;15207;42.182;24.308;2023-02-28T06:19:03;100011.78;;;8.56;100.00
27840;BME280;15207;42.182;24.308;2023-02-28T06:21:29;100008.34;;;8.54;100.00
27840;BME280;15207;42.182;24.308;2023-02-28T06:23:56;100011.69;;;8.58;100.00
27840;BME280;15207;42.182;24.308;2023-02-28T06:26:23;100011.78;;;8.56;100.00
27840;BME280;15207;42.182;24.308;2023-02-28T06:28:48;100008.84;;;8.61;100.00
27840;BME280;15207;42.182;24.308;2023-02-28T06:31:16;100007.16;;;8.75;100.00
27840;BME280;15207;42.182;24.308;2023-02-28T06:33:42;100013.28;;;8.77;99.81
27840;BME280;15207;42.182;24.308;2023-02-28T06:36:11;100018.88;;;8.72;99.85
27840;BME280;15207;42.182;24.308;2023-02-28T06:38:37;100025.66;;;8.78;99.58
27840;BME280;15207;42.182;24.308;2023-02-28T06:41:03;100026.16;;;8.84;99.67
27840;BME280;15207;42.182;24.308;2023-02-28T06:43:31;100021.28;;;8.77;99.12
27840;BME280;15207;42.182;24.308;2023-02-28T06:45:58;100020.78;;;8.70;100.00
27840;BME280;15207;42.182;24.308;2023-02-28T06:48:26;100021.72;;;8.54;100.00
27840;BME280;15207;42.182;24.308;2023-02-28T06:51:00;100025.31;;;8.53;100.00
27840;BME280;15207;42.182;24.308;2023-02-28T06:53:26;100023.41;;;8.55;100.00
27840;BME280;15207;42.182;24.308;2023-02-28T06:55:52;100020.13;;;8.66;100.00
27840;BME280;15207;42.182;24.308;2023-02-28T06:58:17;100026.50;;;8.64;100.00
27840;BME280;15207;42.182;24.308;2023-02-28T07:00:45;100023.84;;;8.64;99.90
27840;BME280;15207;42.182;24.308;2023-02-28T07:03:11;100035.16;;;8.53;100.00
27840;BME280;15207;42.182;24.308;2023-02-28T07:05:38;100029.34;;;8.60;100.00
27840;BME280;15207;42.182;24.308;2023-02-28T07:08:05;100040.03;;;8.60;100.00
27840;BME280;15207;42.182;24.308;2023-02-28T07:10:32;100040.06;;;8.75;99.40
27840;BME280;15207;42.182;24.308;2023-02-28T07:12:59;100041.59;;;8.79;99.14
27840;BME280;15207;42.182;24.308;2023-02-28T07:15:25;100043.69;;;8.74;99.57
27840;BME280;15207;42.182;24.308;2023-02-28T07:17:51;100044.03;;;8.68;99.04
27840;BME280;15207;42.182;24.308;2023-02-28T07:20:17;100041.44;;;8.97;99.21
27840;BME280;15207;42.182;24.308;2023-02-28T07:22:43;100032.75;;;8.93;97.63
27840;BME280;15207;42.182;24.308;2023-02-28T07:25:09;100048.28;;;8.86;97.81
27840;BME280;15207;42.182;24.308;2023-02-28T07:27:34;100051.13;;;8.83;97.95
27840;BME280;15207;42.182;24.308;2023-02-28T07:30:00;100046.41;;;8.89;97.92
27840;BME280;15207;42.182;24.308;2023-02-28T07:32:27;100040.56;;;8.82;98.28
27840;BME280;15207;42.182;24.308;2023-02-28T07:34:53;100047.81;;;8.94;97.74
27840;BME280;15207;42.182;24.308;2023-02-28T07:37:19;100045.25;;;8.93;97.49
27840;BME280;15207;42.182;24.308;2023-02-28T07:39:45;100051.00;;;9.01;97.59
27840;BME280;15207;42.182;24.308;2023-02-28T07:42:10;100045.25;;;9.07;98.00
27840;BME280;15207;42.182;24.308;2023-02-28T07:44:38;100050.63;;;9.22;96.56
27840;BME280;15207;42.182;24.308;2023-02-28T07:47:11;100041.56;;;9.24;96.26
27840;BME280;15207;42.182;24.308;2023-02-28T07:49:37;100037.19;;;9.38;95.89
27840;BME280;15207;42.182;24.308;2023-02-28T07:52:04;100038.03;;;9.38;95.72
27840;BME280;15207;42.182;24.308;2023-02-28T07:54:30;100054.94;;;9.39;94.88
27840;BME280;15207;42.182;24.308;2023-02-28T07:56:55;100056.16;;;9.33;94.93
27840;BME280;15207;42.182;24.308;2023-02-28T07:59:21;100058.84;;;9.33;94.45
27840;BME280;15207;42.182;24.308;2023-02-28T08:01:46;100056.53;;;9.27;94.92
27840;BME280;15207;42.182;24.308;2023-02-28T08:04:14;100051.41;;;9.09;95.79
27840;BME280;15207;42.182;24.308;2023-02-28T08:06:40;100065.09;;;9.03;96.33
27840;BME280;15207;42.182;24.308;2023-02-28T08:09:05;100071.44;;;9.17;96.17
27840;BME280;15207;42.182;24.308;2023-02-28T08:11:31;100069.16;;;9.25;95.55
27840;BME280;15207;42.182;24.308;2023-02-28T08:13:57;100071.44;;;9.31;95.74
27840;BME280;15207;42.182;24.308;2023-02-28T08:16:22;100069.34;;;9.51;94.53
27840;BME280;15207;42.182;24.308;2023-02-28T08:18:49;100069.03;;;9.56;94.08
27840;BME280;15207;42.182;24.308;2023-02-28T08:21:15;100076.03;;;9.58;93.30
27840;BME280;15207;42.182;24.308;2023-02-28T08:23:41;100073.56;;;9.55;93.68
27840;BME280;15207;42.182;24.308;2023-02-28T08:26:06;100074.69;;;9.65;92.99
27840;BME280;15207;42.182;24.308;2023-02-28T08:28:32;100072.88;;;9.66;92.88
27840;BME280;15207;42.182;24.308;2023-02-28T08:30:58;100063.44;;;9.60;92.98
27840;BME280;15207;42.182;24.308;2023-02-28T08:33:25;100062.84;;;9.70;92.86
27840;BME280;15207;42.182;24.308;2023-02-28T08:35:55;100059.59;;;9.79;91.95
27840;BME280;15207;42.182;24.308;2023-02-28T08:38:21;100066.19;;;9.59;92.13
27840;BME280;15207;42.182;24.308;2023-02-28T08:40:47;100058.84;;;9.48;92.67
27840;BME280;15207;42.182;24.308;2023-02-28T08:43:12;100057.31;;;9.44;93.22
27840;BME280;15207;42.182;24.308;2023-02-28T08:45:38;100058.47;;;9.54;93.08
27840;BME280;15207;42.182;24.308;2023-02-28T08:48:03;100064.25;;;9.75;91.84
27840;BME280;15207;42.182;24.308;2023-02-28T08:50:29;100055.75;;;9.83;91.71
27840;BME280;15207;42.182;24.308;2023-02-28T08:52:54;100055.00;;;9.81;91.56
27840;BME280;15207;42.182;24.308;2023-02-28T08:55:20;100053.13;;;9.96;91.33
27840;BME280;15207;42.182;24.308;2023-02-28T08:57:46;100063.75;;;10.25;90.12
27840;BME280;15207;42.182;24.308;2023-02-28T09:00:12;100047.97;;;10.08;89.01
27840;BME280;15207;42.182;24.308;2023-02-28T09:02:39;100050.75;;;9.91;89.86
27840;BME280;15207;42.182;24.308;2023-02-28T09:05:05;100057.75;;;9.79;91.05
27840;BME280;15207;42.182;24.308;2023-02-28T09:07:30;100059.66;;;9.92;90.86
27840;BME280;15207;42.182;24.308;2023-02-28T09:09:58;100061.78;;;9.87;90.62
27840;BME280;15207;42.182;24.308;2023-02-28T09:12:27;100052.56;;;9.91;91.57
27840;BME280;15207;42.182;24.308;2023-02-28T09:14:53;100060.91;;;9.86;90.64
27840;BME280;15207;42.182;24.308;2023-02-28T09:17:19;100061.78;;;9.87;90.84
27840;BME280;15207;42.182;24.308;2023-02-28T09:19:45;100059.44;;;9.95;90.94
27840;BME280;15207;42.182;24.308;2023-02-28T09:22:12;100062.69;;;10.00;90.97
27840;BME280;15207;42.182;24.308;2023-02-28T09:24:38;100054.75;;;9.99;90.49
27840;BME280;15207;42.182;24.308;2023-02-28T09:27:05;100055.25;;;9.91;91.38
27840;BME280;15207;42.182;24.308;2023-02-28T09:29:32;100044.97;;;10.12;90.76
27840;BME280;15207;42.182;24.308;2023-02-28T09:31:58;100036.94;;;10.12;89.68
27840;BME280;15207;42.182;24.308;2023-02-28T09:34:24;100039.88;;;9.95;89.97
27840;BME280;15207;42.182;24.308;2023-02-28T09:36:50;100028.94;;;9.98;89.81
27840;BME280;15207;42.182;24.308;2023-02-28T09:39:19;100029.00;;;9.83;90.70
27840;BME280;15207;42.182;24.308;2023-02-28T09:41:48;100027.28;;;9.82;91.11
27840;BME280;15207;42.182;24.308;2023-02-28T09:46:55;100034.88;;;10.03;90.39
27840;BME280;15207;42.182;24.308;2023-02-28T09:49:31;100035.13;;;10.13;89.67
27840;BME280;15207;42.182;24.308;2023-02-28T09:52:04;100045.66;;;10.29;89.34
27840;BME280;15207;42.182;24.308;2023-02-28T09:54:32;100046.03;;;10.37;88.60
27840;BME280;15207;42.182;24.308;2023-02-28T10:05:15;100040.88;;;9.79;91.22
27840;BME280;15207;42.182;24.308;2023-02-28T10:10:50;100031.88;;;9.80;91.92
27840;BME280;15207;42.182;24.308;2023-02-28T10:16:15;100039.28;;;9.62;92.39
27840;BME280;15207;42.182;24.308;2023-02-28T10:18:46;100037.03;;;9.69;92.85
27840;BME280;15207;42.182;24.308;2023-02-28T10:21:46;100041.06;;;9.76;92.56
27840;BME280;15207;42.182;24.308;2023-02-28T10:24:20;100022.81;;;9.68;92.61
27840;BME280;15207;42.182;24.308;2023-02-28T10:26:49;100027.22;;;9.69;92.78
27840;BME280;15207;42.182;24.308;2023-02-28T10:29:18;100023.22;;;9.62;92.59
27840;BME280;15207;42.182;24.308;2023-02-28T10:31:43;100024.63;;;9.68;92.87
27840;BME280;15207;42.182;24.308;2023-02-28T10:34:12;100017.50;;;9.53;92.93
27840;BME280;15207;42.182;24.308;2023-02-28T10:36:38;100022.75;;;9.55;94.11
27840;BME280;15207;42.182;24.308;2023-02-28T10:42:02;100018.69;;;9.77;93.41
27840;BME280;15207;42.182;24.308;2023-02-28T10:44:28;100026.72;;;9.77;92.58
27840;BME280;15207;42.182;24.308;2023-02-28T10:46:53;100018.59;;;9.78;92.94
27840;BME280;15207;42.182;24.308;2023-02-28T10:49:23;100016.38;;;9.85;92.55
27840;BME280;15207;42.182;24.308;2023-02-28T10:51:53;99999.84;;;9.93;92.01
27840;BME280;15207;42.182;24.308;2023-02-28T10:54:32;100007.75;;;9.95;91.53
27840;BME280;15207;42.182;24.308;2023-02-28T10:57:23;100003.91;;;9.99;91.31
27840;BME280;15207;42.182;24.308;2023-02-28T10:59:52;99997.63;;;10.00;91.82
27840;BME280;15207;42.182;24.308;2023-02-28T11:02:35;99989.34;;;9.75;92.28
27840;BME280;15207;42.182;24.308;2023-02-28T11:05:03;99987.06;;;9.84;92.01
27840;BME280;15207;42.182;24.308;2023-02-28T11:07:54;99981.38;;;9.61;93.40
27840;BME280;15207;42.182;24.308;2023-02-28T11:10:23;99976.38;;;9.69;93.02
27840;BME280;15207;42.182;24.308;2023-02-28T11:12:54;99976.16;;;9.87;92.74
27840;BME280;15207;42.182;24.308;2023-02-28T11:20:30;99976.28;;;9.71;93.36
27840;BME280;15207;42.182;24.308;2023-02-28T11:22:58;99984.75;;;9.50;94.63
27840;BME280;15207;42.182;24.308;2023-02-28T11:25:35;99977.47;;;9.52;94.13
27840;BME280;15207;42.182;24.308;2023-02-28T11:28:24;99980.44;;;9.62;94.53
27840;BME280;15207;42.182;24.308;2023-02-28T11:31:02;99975.31;;;9.72;93.95
27840;BME280;15207;42.182;24.308;2023-02-28T11:33:50;99971.53;;;9.61;94.08
27840;BME280;15207;42.182;24.308;2023-02-28T11:38:42;99976.56;;;9.66;93.96
27840;BME280;15207;42.182;24.308;2023-02-28T11:41:29;99980.44;;;9.62;93.94
27840;BME280;15207;42.182;24.308;2023-02-28T11:46:33;99963.59;;;9.60;93.80
27840;BME280;15207;42.182;24.308;2023-02-28T11:49:28;99959.81;;;9.49;94.04
27840;BME280;15207;42.182;24.308;2023-02-28T11:51:59;99956.47;;;9.46;94.21
27840;BME280;15207;42.182;24.308;2023-02-28T11:54:51;99951.22;;;9.44;94.74
27840;BME280;15207;42.182;24.308;2023-02-28T11:57:56;99944.22;;;9.56;95.14
27840;BME280;15207;42.182;24.308;2023-02-28T12:06:09;99952.19;;;9.85;94.48
27840;BME280;15207;42.182;24.308;2023-02-28T12:08:53;99952.97;;;9.73;96.64
27840;BME280;15207;42.182;24.308;2023-02-28T12:14:21;99934.47;;;9.70;97.88
27840;BME280;15207;42.182;24.308;2023-02-28T12:19:48;99934.44;;;9.42;99.84
27840;BME280;15207;42.182;24.308;2023-02-28T12:27:17;99946.47;;;9.20;100.00
27840;BME280;15207;42.182;24.308;2023-02-28T12:29:55;99949.63;;;9.27;100.00
27840;BME280;15207;42.182;24.308;2023-02-28T12:32:26;99947.44;;;9.05;100.00
27840;BME280;15207;42.182;24.308;2023-02-28T12:35:34;99951.63;;;8.80;100.00
27840;BME280;15207;42.182;24.308;2023-02-28T12:40:50;99949.16;;;8.62;100.00
27840;BME280;15207;42.182;24.308;2023-02-28T12:43:20;99948.50;;;8.58;100.00
27840;BME280;15207;42.182;24.308;2023-02-28T12:46:00;99945.16;;;8.84;100.00
27840;BME280;15207;42.182;24.308;2023-02-28T12:48:40;99940.38;;;8.75;100.00
27840;BME280;15207;42.182;24.308;2023-02-28T12:51:08;99939.25;;;8.93;100.00
27840;BME280;15207;42.182;24.308;2023-02-28T12:53:59;99940.69;;;8.99;100.00
27840;BME280;15207;42.182;24.308;2023-02-28T12:59:42;99942.59;;;8.97;100.00
27840;BME280;15207;42.182;24.308;2023-02-28T13:02:40;99942.41;;;9.15;100.00
27840;BME280;15207;42.182;24.308;2023-02-28T13:08:04;99930.66;;;9.03;100.00
27840;BME280;15207;42.182;24.308;2023-02-28T13:10:49;99928.66;;;8.92;100.00
27840;BME280;15207;42.182;24.308;2023-02-28T13:13:21;99930.56;;;8.75;100.00
27840;BME280;15207;42.182;24.308;2023-02-28T13:16:07;99933.50;;;8.70;100.00
27840;BME280;15207;42.182;24.308;2023-02-28T13:18:42;99929.69;;;8.60;100.00
27840;BME280;15207;42.182;24.308;2023-02-28T13:21:26;99926.88;;;8.47;100.00
27840;BME280;15207;42.182;24.308;2023-02-28T13:34:34;99931.44;;;8.45;100.00
27840;BME280;15207;42.182;24.308;2023-02-28T13:39:52;99944.66;;;8.63;100.00
27840;BME280;15207;42.182;24.308;2023-02-28T13:58:44;99947.47;;;8.14;100.00
27840;BME280;15207;42.182;24.308;2023-02-28T14:06:55;99944.56;;;8.03;100.00
27840;BME280;15207;42.182;24.308;2023-02-28T14:11:59;99935.66;;;7.88;100.00
27840;BME280;15207;42.182;24.308;2023-02-28T14:17:14;99936.78;;;7.84;100.00
27840;BME280;15207;42.182;24.308;2023-02-28T14:19:44;99944.34;;;7.91;100.00
27840;BME280;15207;42.182;24.308;2023-02-28T14:31:10;99934.53;;;7.92;100.00
27840;BME280;15207;42.182;24.308;2023-02-28T14:33:47;99940.91;;;7.89;100.00
27840;BME280;15207;42.182;24.308;2023-02-28T14:36:23;99945.72;;;7.83;100.00
27840;BME280;15207;42.182;24.308;2023-02-28T14:38:52;99933.88;;;7.72;100.00
27840;BME280;15207;42.182;24.308;2023-02-28T14:41:30;99934.47;;;7.77;100.00
27840;BME280;15207;42.182;24.308;2023-02-28T14:43:59;99940.66;;;7.78;100.00
27840;BME280;15207;42.182;24.308;2023-02-28T14:46:35;99935.50;;;7.75;100.00
27840;BME280;15207;42.182;24.308;2023-02-28T14:49:05;99937.19;;;7.92;100.00
27840;BME280;15207;42.182;24.308;2023-02-28T14:51:33;99934.06;;;8.00;100.00
27840;BME280;15207;42.182;24.308;2023-02-28T14:54:00;99939.78;;;8.24;100.00
27840;BME280;15207;42.182;24.308;2023-02-28T14:56:37;99936.78;;;8.14;100.00
27840;BME280;15207;42.182;24.308;2023-02-28T14:59:05;99941.53;;;8.09;100.00
27840;BME280;15207;42.182;24.308;2023-02-28T15:01:31;99938.47;;;8.01;100.00
27840;BME280;15207;42.182;24.308;2023-02-28T15:04:05;99942.41;;;8.10;100.00
27840;BME280;15207;42.182;24.308;2023-02-28T15:06:32;99940.41;;;8.13;100.00
27840;BME280;15207;42.182;24.308;2023-02-28T15:09:15;99953.44;;;8.03;100.00
27840;BME280;15207;42.182;24.308;2023-02-28T15:11:45;99952.13;;;8.11;100.00
27840;BME280;15207;42.182;24.308;2023-02-28T15:14:21;99951.53;;;8.05;100.00
27840;BME280;15207;42.182;24.308;2023-02-28T15:16:59;99953.34;;;8.05;100.00
27840;BME280;15207;42.182;24.308;2023-02-28T15:19:30;99960.88;;;7.98;100.00
27840;BME280;15207;42.182;24.308;2023-02-28T15:21:59;99965.16;;;8.01;100.00
27840;BME280;15207;42.182;24.308;2023-02-28T15:24:31;99964.72;;;7.92;100.00